Archival Weather

Chicago O'Hare International

Chicago, Illinois (KORD)

Report from: Saturday, November 5, 2022 9:51 AM CDT
Current time: Saturday, March 2, 2024 3:27 AM CST

Current weather – Weather history – Daily summaries
Weather forecast

Present weatherLight rain
Temperature16.1°C (61.0°F)
Dew point13.3°C (55.9°F)
Winds 17 kts (8.7 m/s, 19.6 mph) South (180°)
Wind gusts 37 kts (19 m/s, 42.6 mph)
Peak wind 42 kts (21.6 m/s, 48.3 mph) South (170°) at 13:54
Visibility6 mi. (9.7 km)
Clouds Ceiling: Broken clouds 1,600 ft. (488 m)
Overcast 2,000 ft. (610 m)
Altimeter29.44 in.Hg (997 mB)
Precipitiation0.01 in. (0 mm)
Precip. events Rain began 2:42 PM
Precip last 3 hours0.01 in. (0 mm)
Relative humidity83 %
Density altitude906 ft. (276 m)
Sea-level pressure99.7 kPa (997 mB, 29.43 in.Hg)
Remarks Automated weather observing station with precipitation discriminator
Pressure falling more slowly
Flight conditions Marginal Visual Meteorological Conditions
Raw dataKORD 051451Z 18017G37KT 6SM -RA BKN016 OVC020 16/13 A2944 RMK AO2 PK WND 17042/1354 RAB42 SLP967 P0001 60001 T01610133 56026
An error has occurred. This application may no longer respond until reloaded. Reload 🗙